createdAt,value
2022-07-28T00:01:29.146Z,3.06
2022-07-28T00:03:59.505Z,3.09
2022-07-28T00:06:29.924Z,3.12
2022-07-28T00:09:00.421Z,3.15
2022-07-28T00:11:30.854Z,3.19
2022-07-28T00:14:01.302Z,3.18
2022-07-28T00:16:31.764Z,3.21
2022-07-28T00:19:02.642Z,3.25
2022-07-28T00:21:32.630Z,3.23
2022-07-28T00:24:03.194Z,3.24
2022-07-28T00:26:33.566Z,3.26
2022-07-28T00:29:04.009Z,3.39
2022-07-28T00:31:34.473Z,3.41
2022-07-28T00:34:05.005Z,3.31
2022-07-28T00:36:35.357Z,3.3
2022-07-28T00:39:05.842Z,3.31
2022-07-28T00:41:36.300Z,3.33
2022-07-28T00:44:07.737Z,3.32
2022-07-28T00:46:37.272Z,3.36
2022-07-28T00:49:07.846Z,3.4
2022-07-28T00:51:38.207Z,3.42
2022-07-28T00:54:08.666Z,3.44
2022-07-28T00:56:39.142Z,3.48
2022-07-28T00:59:09.687Z,3.5
2022-07-28T01:01:40.290Z,3.81
2022-07-28T01:04:10.721Z,3.83
2022-07-28T01:06:41.003Z,3.86
2022-07-28T01:09:11.474Z,3.9
2022-07-28T01:11:43.052Z,3.89
2022-07-28T01:14:12.732Z,3.94
2022-07-28T01:16:42.867Z,3.99
2022-07-28T01:19:13.455Z,3.99
2022-07-28T01:21:43.915Z,3.99
2022-07-28T01:24:14.755Z,3.98
2022-07-28T01:26:44.972Z,3.99
2022-07-28T01:29:15.333Z,3.91
2022-07-28T01:31:45.775Z,3.88
2022-07-28T01:34:16.662Z,3.89
2022-07-28T01:36:46.635Z,3.85
2022-07-28T01:39:17.107Z,3.89
2022-07-28T01:41:47.691Z,3.89
2022-07-28T01:44:18.067Z,3.84
2022-07-28T01:46:48.536Z,3.82
2022-07-28T01:49:19.030Z,3.83
2022-07-28T01:51:49.421Z,3.82
2022-07-28T01:54:19.918Z,3.92
2022-07-28T01:56:50.376Z,3.93
2022-07-28T01:59:20.878Z,3.9
2022-07-28T02:01:51.395Z,3.9
2022-07-28T02:04:21.840Z,3.95
2022-07-28T02:06:52.294Z,3.9
2022-07-28T02:09:22.817Z,3.86
2022-07-28T02:11:53.367Z,3.89
2022-07-28T02:14:23.788Z,3.88
2022-07-28T02:16:54.357Z,3.98
2022-07-28T02:19:24.777Z,4
2022-07-28T02:21:55.248Z,4.05
2022-07-28T02:24:25.771Z,4.03
2022-07-28T02:26:56.265Z,4.06
2022-07-28T02:29:49.778Z,4.09
2022-07-28T02:31:57.267Z,4.16
2022-07-28T02:34:28.012Z,4.05
2022-07-28T02:36:58.294Z,4.05
2022-07-28T02:39:28.819Z,4.06
2022-07-28T02:41:59.324Z,4.01
2022-07-28T02:44:29.820Z,3.93
2022-07-28T02:47:00.290Z,3.98
2022-07-28T02:49:30.807Z,4.09
2022-07-28T02:52:01.349Z,4.09
2022-07-28T02:54:31.803Z,4.14
2022-07-28T02:57:02.310Z,4.13
2022-07-28T02:59:32.915Z,4.11
2022-07-28T03:02:03.376Z,4.11
2022-07-28T03:04:33.936Z,4.08
2022-07-28T03:07:04.433Z,4.07
2022-07-28T03:09:34.882Z,4.03
2022-07-28T03:12:05.377Z,4.03
2022-07-28T03:14:35.871Z,4.02
2022-07-28T03:17:06.511Z,4.13
2022-07-28T03:19:36.902Z,4.24
2022-07-28T03:22:10.526Z,4.24
2022-07-28T03:24:37.909Z,4.28
2022-07-28T03:27:08.434Z,4.25
2022-07-28T03:29:38.936Z,4.25
2022-07-28T03:32:09.418Z,4.25
2022-07-28T03:34:39.967Z,4.25
2022-07-28T03:37:10.464Z,4.34
2022-07-28T03:39:41.013Z,4.42
2022-07-28T03:42:11.552Z,4.42
2022-07-28T03:44:42.100Z,4.43
2022-07-28T03:47:12.596Z,4.48
2022-07-28T03:49:43.188Z,4.52
2022-07-28T03:52:13.867Z,4.54
2022-07-28T03:54:44.399Z,4.54
2022-07-28T03:57:15.057Z,4.5
2022-07-28T03:59:45.329Z,4.54
2022-07-28T04:02:15.822Z,4.51
2022-07-28T04:04:46.473Z,4.55
2022-07-28T04:07:17.104Z,4.56
2022-07-28T04:09:47.251Z,4.56
2022-07-28T04:12:17.414Z,4.49
2022-07-28T04:14:47.757Z,4.48
2022-07-28T04:17:17.738Z,4.45
2022-07-28T04:19:47.946Z,4.45
2022-07-28T04:22:18.120Z,4.44
2022-07-28T04:24:48.813Z,4.42
2022-07-28T04:27:19.217Z,4.45
2022-07-28T04:29:49.900Z,4.44
2022-07-28T04:32:19.993Z,4.47
2022-07-28T04:34:50.205Z,4.57
2022-07-28T04:37:20.194Z,4.58
2022-07-28T04:39:50.756Z,4.63
2022-07-28T04:42:20.961Z,4.68
2022-07-28T04:44:51.664Z,4.71
2022-07-28T04:47:22.229Z,4.71
2022-07-28T04:49:52.808Z,4.76
2022-07-28T04:52:23.318Z,4.74
2022-07-28T04:54:53.921Z,4.74
2022-07-28T04:57:24.771Z,4.77
2022-07-28T04:59:56.760Z,4.77
2022-07-28T05:02:25.794Z,4.77
2022-07-28T05:04:55.991Z,4.82
2022-07-28T05:07:26.171Z,4.8
2022-07-28T05:09:56.168Z,4.72
2022-07-28T05:12:26.175Z,4.68
2022-07-28T05:14:56.310Z,4.65
2022-07-28T05:17:26.752Z,4.63
2022-07-28T05:19:56.977Z,4.72
2022-07-28T05:22:27.085Z,4.72
2022-07-28T05:24:57.550Z,4.72
2022-07-28T05:27:27.773Z,4.73
2022-07-28T05:29:57.699Z,4.72
2022-07-28T05:32:28.056Z,4.73
2022-07-28T05:34:58.445Z,4.73
2022-07-28T05:37:29.240Z,4.77
2022-07-28T05:39:59.477Z,4.77
2022-07-28T05:42:30.200Z,4.83
2022-07-28T05:45:00.837Z,4.84
2022-07-28T05:47:31.323Z,4.89
2022-07-28T05:50:01.919Z,5.03
2022-07-28T05:52:32.528Z,4.96
2022-07-28T05:55:02.986Z,5
2022-07-28T05:57:33.508Z,5.11
2022-07-28T06:00:04.010Z,5.04
2022-07-28T06:02:34.625Z,4.97
2022-07-28T06:05:05.053Z,4.97
2022-07-28T06:07:43.076Z,4.93
2022-07-28T06:10:06.069Z,4.9
2022-07-28T06:12:36.573Z,4.82
2022-07-28T06:15:07.063Z,4.8
2022-07-28T06:17:37.531Z,4.79
2022-07-28T06:20:08.192Z,4.68
2022-07-28T06:22:38.496Z,4.6
2022-07-28T06:25:08.993Z,4.29
2022-07-28T06:27:39.484Z,4.28
2022-07-28T06:30:09.967Z,4.16
2022-07-28T06:32:40.483Z,4.19
2022-07-28T06:35:10.945Z,4.45
2022-07-28T06:37:41.376Z,4.48
2022-07-28T06:40:11.861Z,4.44
2022-07-28T06:42:42.311Z,4.36
2022-07-28T06:45:20.966Z,4.3
2022-07-28T06:47:45.925Z,4.22
2022-07-28T06:50:24.554Z,4.21
2022-07-28T06:52:44.103Z,3.87
2022-07-28T06:55:14.493Z,3.98
2022-07-28T06:57:44.927Z,3.81
2022-07-28T07:00:15.356Z,3.6
2022-07-28T07:02:45.747Z,3.59
2022-07-28T07:05:16.187Z,3.46
2022-07-28T07:07:46.593Z,3.63
2022-07-28T07:10:17.019Z,3.62
2022-07-28T07:12:47.455Z,3.48
2022-07-28T07:15:17.854Z,3.53
2022-07-28T07:17:48.260Z,3.43
2022-07-28T07:20:18.691Z,3.22
2022-07-28T07:22:49.052Z,3.44
2022-07-28T07:25:19.558Z,3.42
2022-07-28T07:27:49.910Z,3.62
2022-07-28T07:30:20.232Z,3.41
2022-07-28T07:32:50.624Z,3.04
2022-07-28T07:35:21.006Z,3.07
2022-07-28T07:37:51.360Z,2.95
2022-07-28T07:40:21.762Z,3.11
2022-07-28T07:42:52.120Z,3.21
2022-07-28T07:45:22.488Z,2.99
2022-07-28T07:47:52.840Z,2.98
2022-07-28T07:50:23.294Z,2.56
2022-07-28T07:52:53.565Z,2.83
2022-07-28T07:55:23.965Z,2.77
2022-07-28T07:57:54.331Z,2.72
2022-07-28T08:00:30.533Z,2.89
2022-07-28T08:02:55.045Z,2.81
2022-07-28T08:05:34.893Z,2.75
2022-07-28T08:07:55.793Z,2.56
2022-07-28T08:10:26.217Z,2.51
2022-07-28T08:12:56.455Z,2.77
2022-07-28T08:15:26.801Z,2.69
2022-07-28T08:17:57.182Z,2.59
2022-07-28T08:20:27.494Z,2.56
2022-07-28T08:22:57.823Z,2.51
2022-07-28T08:25:28.282Z,2.61
2022-07-28T08:27:58.504Z,2.65
2022-07-28T08:30:32.607Z,2.67
2022-07-28T08:32:59.129Z,2.42
2022-07-28T08:35:33.438Z,2.44
2022-07-28T08:37:59.796Z,2.51
2022-07-28T08:40:30.128Z,2.4
2022-07-28T08:43:00.572Z,2.29
2022-07-28T08:45:30.827Z,2.42
2022-07-28T08:48:08.139Z,2.35
2022-07-28T08:50:31.450Z,2.21
2022-07-28T08:53:01.727Z,2.24
2022-07-28T08:55:32.435Z,2.28
2022-07-28T08:58:02.412Z,2.36
2022-07-28T09:00:32.719Z,2.3
2022-07-28T09:03:03.138Z,2.21
2022-07-28T09:05:33.348Z,2.28
2022-07-28T09:08:03.559Z,2.15
2022-07-28T09:10:33.883Z,2.32
2022-07-28T09:13:04.257Z,2.09
2022-07-28T09:15:34.524Z,1.99
2022-07-28T09:18:04.769Z,2.09
2022-07-28T09:20:35.293Z,2.39
2022-07-28T09:23:05.429Z,2.13
2022-07-28T09:25:35.647Z,2.23
2022-07-28T09:28:05.946Z,2
2022-07-28T09:30:36.230Z,2.18
2022-07-28T09:33:06.476Z,2.23
2022-07-28T09:35:36.847Z,2.26
2022-07-28T09:38:07.063Z,2.18
2022-07-28T09:40:37.358Z,2.1
2022-07-28T09:43:07.636Z,2.08
2022-07-28T09:45:37.941Z,2.24
2022-07-28T09:48:08.366Z,2.26
2022-07-28T09:50:38.726Z,2.23
2022-07-28T09:53:08.887Z,2.31
2022-07-28T09:55:39.255Z,2.25
2022-07-28T09:58:09.571Z,2.21
2022-07-28T10:00:39.883Z,2.22
2022-07-28T10:03:10.171Z,2.08
2022-07-28T10:05:40.433Z,2.17
2022-07-28T10:08:10.640Z,2.19
2022-07-28T10:10:41.011Z,2.16
2022-07-28T10:13:11.166Z,2.27
2022-07-28T10:15:46.656Z,2.04
2022-07-28T10:18:11.702Z,1.99
2022-07-28T10:20:42.073Z,2.15
2022-07-28T10:23:12.287Z,2.03
2022-07-28T10:25:42.566Z,1.98
2022-07-28T10:28:12.798Z,1.9
2022-07-28T10:30:43.108Z,1.77
2022-07-28T10:33:13.274Z,1.86
2022-07-28T10:35:51.026Z,1.68
2022-07-28T10:38:14.105Z,1.77
2022-07-28T10:40:44.059Z,1.9
2022-07-28T10:43:14.402Z,1.66
2022-07-28T10:46:04.605Z,1.74
2022-07-28T10:48:14.821Z,1.88
2022-07-28T10:50:45.091Z,1.92
2022-07-28T10:53:15.271Z,1.97
2022-07-28T10:55:45.520Z,1.81
2022-07-28T10:58:15.850Z,1.82
2022-07-28T11:00:55.403Z,1.71
2022-07-28T11:03:16.265Z,1.84
2022-07-28T11:05:46.418Z,2
2022-07-28T11:08:16.625Z,1.99
2022-07-28T11:10:46.943Z,1.73
2022-07-28T11:13:17.051Z,1.77
2022-07-28T11:15:47.269Z,1.94
2022-07-28T11:18:17.466Z,1.92
2022-07-28T11:20:47.703Z,1.97
2022-07-28T11:23:17.876Z,2
2022-07-28T11:25:48.186Z,1.79
2022-07-28T11:28:18.286Z,2.02
2022-07-28T11:30:48.594Z,1.79
2022-07-28T11:33:18.741Z,1.82
2022-07-28T11:35:48.987Z,1.88
2022-07-28T11:38:19.081Z,1.7
2022-07-28T11:40:49.259Z,1.77
2022-07-28T11:43:22.147Z,1.59
2022-07-28T11:45:55.751Z,1.6
2022-07-28T11:48:19.866Z,1.57
2022-07-28T11:50:50.112Z,1.67
2022-07-28T11:53:20.299Z,1.6
2022-07-28T11:56:02.440Z,1.7
2022-07-28T11:58:20.826Z,1.74
2022-07-28T12:00:50.941Z,1.69
2022-07-28T12:03:23.879Z,1.86
2022-07-28T12:05:51.371Z,1.83
2022-07-28T12:08:21.658Z,1.98
2022-07-28T12:10:54.877Z,1.9
2022-07-28T12:13:21.968Z,1.76
2022-07-28T12:15:52.213Z,1.51
2022-07-28T12:18:24.874Z,1.64
2022-07-28T12:20:52.600Z,1.78
2022-07-28T12:23:22.787Z,1.78
2022-07-28T12:25:53.107Z,1.69
2022-07-28T12:28:23.197Z,1.54
2022-07-28T12:30:53.389Z,1.69
2022-07-28T12:33:28.994Z,1.81
2022-07-28T12:35:53.792Z,1.69
2022-07-28T12:38:23.947Z,1.83
2022-07-28T12:40:54.144Z,1.81
2022-07-28T12:43:24.330Z,1.78
2022-07-28T12:45:54.529Z,1.57
2022-07-28T12:48:24.682Z,1.82
2022-07-28T12:50:54.872Z,1.86
2022-07-28T12:53:25.024Z,1.82
2022-07-28T12:55:55.244Z,1.63
2022-07-28T12:58:25.399Z,1.56
2022-07-28T13:00:55.606Z,1.51
2022-07-28T13:03:25.700Z,1.72
2022-07-28T13:05:55.908Z,1.68
2022-07-28T13:08:27.402Z,1.67
2022-07-28T13:10:58.605Z,1.57
2022-07-28T13:13:26.422Z,1.68
2022-07-28T13:15:56.643Z,1.74
2022-07-28T13:18:26.737Z,1.7
2022-07-28T13:20:56.933Z,1.77
2022-07-28T13:23:27.078Z,1.69
2022-07-28T13:25:57.244Z,1.7
2022-07-28T13:28:27.398Z,1.57
2022-07-28T13:30:57.566Z,1.51
2022-07-28T13:33:28.210Z,1.66
2022-07-28T13:35:57.891Z,1.5
2022-07-28T13:38:28.019Z,1.53
2022-07-28T13:40:58.216Z,1.39
2022-07-28T13:43:35.866Z,1.55
2022-07-28T13:46:00.171Z,1.77
2022-07-28T13:48:28.702Z,1.69
2022-07-28T13:50:58.894Z,1.73
2022-07-28T13:53:29.050Z,1.85
2022-07-28T13:55:59.244Z,1.64
2022-07-28T13:58:29.454Z,1.67
2022-07-28T14:00:59.713Z,1.67
2022-07-28T14:03:29.851Z,1.69
2022-07-28T14:05:59.957Z,1.75
2022-07-28T14:08:30.121Z,1.59
2022-07-28T14:11:00.302Z,1.45
2022-07-28T14:13:31.458Z,1.49
2022-07-28T14:16:02.398Z,1.72
2022-07-28T14:18:30.808Z,1.63
2022-07-28T14:21:01.006Z,1.63
2022-07-28T14:23:31.155Z,1.58
2022-07-28T14:26:25.183Z,1.69
2022-07-28T14:28:31.536Z,1.84
2022-07-28T14:31:01.764Z,1.67
2022-07-28T14:33:31.860Z,1.78
2022-07-28T14:36:02.143Z,1.73
2022-07-28T14:38:52.826Z,1.66
2022-07-28T14:41:02.382Z,1.55
2022-07-28T14:43:32.557Z,1.77
2022-07-28T14:46:13.519Z,1.52
2022-07-28T14:48:32.897Z,1.43
2022-07-28T14:51:03.077Z,1.54
2022-07-28T14:53:35.140Z,1.52
2022-07-28T14:56:03.438Z,1.48
2022-07-28T14:58:33.738Z,1.66
2022-07-28T15:01:03.813Z,1.69
2022-07-28T15:03:36.406Z,1.62
2022-07-28T15:06:04.263Z,1.68
2022-07-28T15:08:34.362Z,1.7
2022-07-28T15:11:04.555Z,1.68
2022-07-28T15:13:34.851Z,1.78
2022-07-28T15:16:05.023Z,1.68
2022-07-28T15:18:37.742Z,1.62
2022-07-28T15:21:05.304Z,1.75
2022-07-28T15:23:35.468Z,1.66
2022-07-28T15:26:05.664Z,1.62
2022-07-28T15:28:35.858Z,1.64
2022-07-28T15:31:07.789Z,1.67
2022-07-28T15:33:36.205Z,1.76
2022-07-28T15:36:06.412Z,1.66
2022-07-28T15:38:36.639Z,1.64
2022-07-28T15:41:06.762Z,1.64
2022-07-28T15:43:36.954Z,1.58
2022-07-28T15:46:07.272Z,1.56
2022-07-28T15:48:37.387Z,1.62
2022-07-28T15:51:07.489Z,1.54
2022-07-28T15:53:37.792Z,1.6
2022-07-28T15:56:07.851Z,1.56
2022-07-28T15:58:38.037Z,1.56
2022-07-28T16:01:08.329Z,1.73
2022-07-28T16:03:38.448Z,1.71
2022-07-28T16:06:08.563Z,1.52
2022-07-28T16:08:38.725Z,1.48
2022-07-28T16:11:08.913Z,1.5
2022-07-28T16:13:39.197Z,1.49
2022-07-28T16:16:09.350Z,1.55
2022-07-28T16:18:39.459Z,1.61
2022-07-28T16:21:09.636Z,1.56
2022-07-28T16:23:39.810Z,1.31
2022-07-28T16:26:10.003Z,1.57
2022-07-28T16:28:40.287Z,1.66
2022-07-28T16:31:10.405Z,1.55
2022-07-28T16:33:40.491Z,1.47
2022-07-28T16:36:10.660Z,1.58
2022-07-28T16:38:40.803Z,1.63
2022-07-28T16:41:10.975Z,1.7
2022-07-28T16:43:44.694Z,1.44
2022-07-28T16:46:11.389Z,1.53
2022-07-28T16:48:41.498Z,1.51
2022-07-28T16:51:11.709Z,1.49
2022-07-28T16:53:41.795Z,1.62
2022-07-28T16:56:11.977Z,1.66
2022-07-28T16:58:42.177Z,1.87
2022-07-28T17:01:12.381Z,1.56
2022-07-28T17:03:42.473Z,1.67
2022-07-28T17:06:12.770Z,1.54
2022-07-28T17:08:42.827Z,1.8
2022-07-28T17:11:13.106Z,1.78
2022-07-28T17:13:45.446Z,1.7
2022-07-28T17:16:13.479Z,1.65
2022-07-28T17:18:43.522Z,1.7
2022-07-28T17:21:13.800Z,1.74
2022-07-28T17:23:43.909Z,1.53
2022-07-28T17:28:44.349Z,1.59
2022-07-28T17:31:14.525Z,1.61
2022-07-28T17:33:44.693Z,1.63
2022-07-28T17:36:14.829Z,1.51
2022-07-28T17:38:45.003Z,1.7
2022-07-28T17:41:15.214Z,1.79
2022-07-28T17:43:45.843Z,1.82
2022-07-28T17:46:15.678Z,1.75
2022-07-28T17:48:45.833Z,1.71
2022-07-28T17:51:15.993Z,1.67
2022-07-28T17:53:46.219Z,1.62
2022-07-28T17:56:16.447Z,1.6
2022-07-28T17:58:46.639Z,1.57
2022-07-28T18:01:17.012Z,1.62
2022-07-28T18:03:56.906Z,1.67
2022-07-28T18:06:17.297Z,1.69
2022-07-28T18:08:47.622Z,1.7
2022-07-28T18:11:17.839Z,1.79
2022-07-28T18:14:03.605Z,1.69
2022-07-28T18:16:18.325Z,1.74
2022-07-28T18:18:48.471Z,1.75
2022-07-28T18:21:18.719Z,1.71
2022-07-28T18:23:48.958Z,1.69
2022-07-28T18:26:19.281Z,1.67
2022-07-28T18:28:49.478Z,1.72
2022-07-28T18:31:19.764Z,1.76
2022-07-28T18:33:49.949Z,1.72
2022-07-28T18:36:20.213Z,1.72
2022-07-28T18:38:50.460Z,1.77
2022-07-28T18:41:20.710Z,1.75
2022-07-28T18:43:51.061Z,1.78
2022-07-28T18:46:21.249Z,1.75
2022-07-28T18:48:56.636Z,1.71
2022-07-28T18:51:21.711Z,1.67
2022-07-28T18:53:51.940Z,1.81
2022-07-28T18:56:22.328Z,1.81
2022-07-28T18:58:52.477Z,1.83
2022-07-28T19:01:22.900Z,1.72
2022-07-28T19:03:52.962Z,1.75
2022-07-28T19:06:23.272Z,1.86
2022-07-28T19:08:53.484Z,1.86
2022-07-28T19:11:23.785Z,1.91
2022-07-28T19:13:54.046Z,1.89
2022-07-28T19:16:24.401Z,1.94
2022-07-28T19:18:54.566Z,1.98
2022-07-28T19:21:24.828Z,1.94
2022-07-28T19:23:55.063Z,2.01
2022-07-28T19:26:25.436Z,1.98
2022-07-28T19:28:55.590Z,2.03
2022-07-28T19:31:25.923Z,2
2022-07-28T19:33:56.086Z,2.03
2022-07-28T19:36:26.358Z,2.03
2022-07-28T19:38:56.586Z,2.01
2022-07-28T19:41:26.971Z,2.04
2022-07-28T19:43:57.172Z,2.06
2022-07-28T19:46:27.565Z,2.12
2022-07-28T19:48:57.747Z,2.08
2022-07-28T19:51:28.068Z,2.12
2022-07-28T19:53:58.387Z,2.17
2022-07-28T19:56:31.512Z,2.21
2022-07-28T19:58:58.970Z,2.15
2022-07-28T20:01:29.392Z,2.17
2022-07-28T20:04:04.628Z,2.21
2022-07-28T20:06:30.086Z,2.22
2022-07-28T20:09:00.354Z,2.19
2022-07-28T20:11:30.666Z,2.19
2022-07-28T20:14:00.961Z,2.24
2022-07-28T20:16:31.307Z,2.29
2022-07-28T20:19:01.511Z,2.33
2022-07-28T20:21:39.432Z,2.34
2022-07-28T20:24:02.093Z,2.3
2022-07-28T20:26:32.504Z,2.39
2022-07-28T20:29:02.719Z,2.32
2022-07-28T20:31:33.056Z,2.37
2022-07-28T20:34:03.285Z,2.41
2022-07-28T20:36:33.704Z,2.44
2022-07-28T20:39:21.064Z,2.43
2022-07-28T20:41:34.186Z,2.52
2022-07-28T20:44:27.744Z,2.54
2022-07-28T20:46:34.887Z,2.46
2022-07-28T20:49:05.076Z,2.48
2022-07-28T20:51:35.374Z,2.55
2022-07-28T20:54:05.660Z,2.46
2022-07-28T20:56:35.992Z,2.49
2022-07-28T20:59:07.010Z,2.49
2022-07-28T21:01:36.748Z,2.49
2022-07-28T21:04:06.891Z,2.55
2022-07-28T21:06:37.216Z,2.58
2022-07-28T21:09:07.510Z,2.51
2022-07-28T21:11:37.848Z,2.55
2022-07-28T21:14:08.189Z,2.58
2022-07-28T21:16:38.712Z,2.55
2022-07-28T21:19:08.766Z,2.53
2022-07-28T21:21:39.239Z,2.52
2022-07-28T21:24:09.445Z,2.53
2022-07-28T21:26:39.760Z,2.59
2022-07-28T21:29:10.083Z,2.54
2022-07-28T21:32:02.373Z,2.56
2022-07-28T21:34:10.704Z,2.53
2022-07-28T21:36:41.080Z,2.52
2022-07-28T21:39:11.379Z,2.53
2022-07-28T21:41:41.827Z,2.56
2022-07-28T21:44:12.089Z,2.65
2022-07-28T21:46:42.433Z,2.62
2022-07-28T21:49:12.899Z,2.55
2022-07-28T21:51:43.138Z,2.57
2022-07-28T21:54:13.789Z,2.58
2022-07-28T21:56:43.795Z,2.63
2022-07-28T21:59:14.130Z,2.55
2022-07-28T22:01:44.530Z,2.68
2022-07-28T22:04:15.021Z,2.64
2022-07-28T22:06:46.174Z,2.6
2022-07-28T22:09:15.499Z,2.59
2022-07-28T22:11:45.813Z,2.57
2022-07-28T22:14:16.608Z,2.59
2022-07-28T22:16:46.668Z,2.59
2022-07-28T22:19:16.829Z,2.59
2022-07-28T22:21:47.872Z,2.58
2022-07-28T22:24:17.903Z,2.59
2022-07-28T22:26:47.891Z,2.64
2022-07-28T22:29:18.271Z,2.7
2022-07-28T22:31:48.625Z,2.58
2022-07-28T22:34:19.295Z,2.63
2022-07-28T22:36:49.269Z,2.6
2022-07-28T22:39:19.700Z,2.6
2022-07-28T22:41:50.056Z,2.64
2022-07-28T22:44:20.328Z,2.58
2022-07-28T22:46:50.830Z,2.69
2022-07-28T22:49:21.100Z,2.7
2022-07-28T22:51:51.341Z,2.58
2022-07-28T22:54:21.676Z,2.67
2022-07-28T22:56:52.035Z,2.61
2022-07-28T22:59:22.406Z,2.69
2022-07-28T23:01:52.743Z,2.66
2022-07-28T23:04:23.066Z,2.61
2022-07-28T23:06:53.451Z,2.64
2022-07-28T23:09:23.787Z,2.57
2022-07-28T23:11:55.894Z,2.63
2022-07-28T23:14:24.747Z,2.62
2022-07-28T23:16:54.899Z,2.63
2022-07-28T23:19:25.330Z,2.68
2022-07-28T23:21:55.600Z,2.59
2022-07-28T23:24:25.968Z,2.52
2022-07-28T23:26:56.296Z,2.61
2022-07-28T23:29:26.641Z,2.65
2022-07-28T23:31:57.029Z,2.65
2022-07-28T23:34:27.316Z,2.6
2022-07-28T23:36:57.683Z,2.64
2022-07-28T23:39:28.010Z,2.61
2022-07-28T23:41:58.374Z,2.72
2022-07-28T23:44:28.805Z,2.66
2022-07-28T23:46:59.110Z,2.61
2022-07-28T23:49:29.399Z,2.69
2022-07-28T23:51:59.768Z,2.64
2022-07-28T23:54:30.089Z,2.67
2022-07-28T23:57:00.466Z,2.63
2022-07-28T23:59:30.829Z,2.68
